Time;durP1;ratioP1;P1;durP2;ratioP2;P2;SDS_P1;SDS_P2;PMS_P1;PMS_P2;Temp;Humidity;BMP_temperature;BMP_pressure;BME280_temperature;BME280_humidity;BME280_pressure;Samples;Min_cycle;Max_cycle;Signal;HPM_P1;HPM_P2
2021/03/25 00:00:34;;;;;;;19.62;9.70;;;;;;;1.40;48.30;99597.39;1743134;82;21605;-40
2021/03/25 00:03:04;;;;;;;19.32;9.08;;;;;;;1.35;48.63;99594.80;1743125;82;21056;-40
2021/03/25 00:05:34;;;;;;;20.72;10.40;;;;;;;1.31;48.96;99594.03;1743089;82;21182;-40
2021/03/25 00:08:07;;;;;;;23.65;10.63;;;;;;;1.23;48.98;99592.05;1742956;82;21256;-40
2021/03/25 00:10:37;;;;;;;22.87;11.43;;;;;;;1.24;49.15;99590.17;1742828;82;21043;-39
2021/03/25 00:13:07;;;;;;;18.35;10.15;;;;;;;1.19;49.20;99584.38;1743023;82;21872;-41
2021/03/25 00:15:36;;;;;;;16.07;8.67;;;;;;;1.17;49.39;99575.84;1743320;82;21580;-40
2021/03/25 00:18:06;;;;;;;16.20;9.10;;;;;;;1.14;49.56;99583.12;1742981;82;21390;-40
2021/03/25 00:20:35;;;;;;;19.48;9.35;;;;;;;1.11;49.62;99582.91;1743063;82;21056;-40
2021/03/25 00:23:03;;;;;;;19.40;10.30;;;;;;;1.09;49.71;99576.52;1742826;82;21207;-39
2021/03/25 00:25:35;;;;;;;18.12;9.98;;;;;;;1.08;49.88;99578.14;1743219;82;21016;-40
2021/03/25 00:28:05;;;;;;;16.40;8.43;;;;;;;1.05;50.05;99577.39;1743294;82;21166;-40
2021/03/25 00:30:35;;;;;;;15.48;8.20;;;;;;;1.03;50.16;99572.34;1742924;82;21119;-39
2021/03/25 00:33:05;;;;;;;15.08;7.60;;;;;;;1.03;50.20;99576.88;1743053;82;21376;-39
2021/03/25 00:35:34;;;;;;;14.15;8.03;;;;;;;1.02;50.25;99584.09;1753889;79;21045;-40
2021/03/25 00:38:04;;;;;;;14.20;7.45;;;;;;;0.96;50.22;99580.48;1758516;81;28348;-40
2021/03/25 00:40:34;;;;;;;14.10;7.60;;;;;;;0.97;50.25;99583.41;1757269;81;21182;-40
2021/03/25 00:43:04;;;;;;;12.07;6.58;;;;;;;0.94;50.37;99580.76;1758566;81;21171;-40
2021/03/25 00:45:36;;;;;;;12.23;7.03;;;;;;;0.92;50.25;99577.58;1766925;80;21359;-40
2021/03/25 00:48:05;;;;;;;12.28;7.58;;;;;;;0.90;50.34;99570.95;1773595;80;21041;-40
2021/03/25 00:50:46;;;;;;;;;;;;;;;0.84;50.46;99572.90;1776422;80;21570;-40
2021/03/25 00:53:24;;;;;;;11.40;6.60;;;;;;;0.81;50.36;99573.49;1855593;76;22751;-39
2021/03/25 00:55:53;;;;;;;10.25;6.62;;;;;;;0.64;50.44;99573.98;1829566;78;21608;-39
2021/03/25 00:58:21;;;;;;;12.47;7.10;;;;;;;0.63;50.38;99573.73;1829510;78;22115;-39
2021/03/25 01:00:49;;;;;;;13.53;7.65;;;;;;;0.64;50.39;99562.52;1829459;78;21031;-39
2021/03/25 01:03:20;;;;;;;12.68;6.78;;;;;;;0.63;50.36;99576.97;1829404;78;21340;-39
2021/03/25 01:05:49;;;;;;;11.18;6.85;;;;;;;0.63;50.38;99568.96;1829408;78;20920;-39
2021/03/25 01:08:29;;;;;;;12.28;6.65;;;;;;;0.67;50.25;99576.09;1826733;77;21597;-39
2021/03/25 01:11:11;;;;;;;8.20;5.60;;;;;;;0.70;50.29;99577.38;1825570;78;21369;-40
2021/03/25 01:13:45;;;;;;;11.78;6.58;;;;;;;0.73;50.26;99572.25;1826036;78;20991;-39
2021/03/25 01:16:24;;;;;;;16.82;9.28;;;;;;;0.75;50.44;99571.44;1825997;78;21158;-40
2021/03/25 01:18:56;;;;;;;20.05;9.03;;;;;;;0.81;50.45;99569.48;1825838;78;21165;-39
2021/03/25 01:24:09;;;;;;;17.73;8.78;;;;;;;0.85;50.64;99563.81;1831412;78;22824;-39
2021/03/25 01:26:37;;;;;;;;;;;;;;;0.82;50.53;99572.41;1708688;82;21056;-39
2021/03/25 01:29:07;;;;;;;7.50;4.62;;;;;;;0.83;50.55;99572.64;1742290;82;21209;-39
2021/03/25 01:31:36;;;;;;;9.95;5.03;;;;;;;0.75;50.47;99573.31;1742272;82;21072;-39
2021/03/25 01:34:08;;;;;;;10.63;6.45;;;;;;;0.74;50.40;99575.17;1735204;82;21005;-38
2021/03/25 01:36:36;;;;;;;11.60;5.95;;;;;;;0.72;50.23;99575.23;1765811;81;21041;-39
2021/03/25 01:39:06;;;;;;;;;;;;;;;0.67;50.16;99572.63;1737900;82;21009;-38
2021/03/25 01:44:34;;;;;;;9.93;5.28;;;;;;;0.58;50.60;99566.36;1826800;78;23744;-39
2021/03/25 01:47:06;;;;;;;7.40;5.10;;;;;;;0.52;50.68;99564.84;1781759;80;21048;-39
2021/03/25 01:49:35;;;;;;;9.68;5.35;;;;;;;0.54;50.57;99562.66;1784180;80;21549;-39
2021/03/25 01:52:32;;;;;;;7.53;4.85;;;;;;;0.58;50.46;99566.36;1784035;80;20999;-38
2021/03/25 01:55:15;;;;;;;8.95;5.30;;;;;;;0.58;50.51;99567.70;1784076;80;22079;-39
2021/03/25 01:58:04;;;;;;;11.68;5.72;;;;;;;0.63;50.56;99575.63;1779083;80;21165;-39
2021/03/25 02:00:49;;;;;;;11.03;6.75;;;;;;;0.71;50.54;99573.64;1783956;80;21134;-38
2021/03/25 02:03:44;;;;;;;13.18;7.45;;;;;;;0.77;50.47;99574.63;1783940;80;21208;-38
2021/03/25 02:06:46;;;;;;;9.83;6.05;;;;;;;0.81;50.45;99568.95;1783738;80;21597;-39
2021/03/25 02:09:50;;;;;;;10.63;6.30;;;;;;;0.80;50.65;99574.03;1783871;80;21023;-38
2021/03/25 02:12:48;;;;;;;12.05;6.62;;;;;;;0.78;50.57;99564.71;1784037;80;21166;-38
2021/03/25 02:15:36;;;;;;;10.30;6.20;;;;;;;0.79;50.62;99566.30;1784046;79;21154;-39
2021/03/25 02:18:18;;;;;;;12.10;6.65;;;;;;;0.80;50.67;99563.36;1783937;80;21229;-39
2021/03/25 02:21:42;;;;;;;10.55;6.30;;;;;;;0.80;50.73;99567.36;1783546;80;21146;-38
2021/03/25 02:24:26;;;;;;;10.03;6.58;;;;;;;0.79;50.86;99563.64;1754265;81;21189;-39
2021/03/25 02:27:39;;;;;;;9.43;6.28;;;;;;;0.77;50.79;99563.16;1754429;81;21157;-39
2021/03/25 02:30:33;;;;;;;11.63;5.95;;;;;;;0.76;50.94;99565.02;1782703;80;21153;-39
2021/03/25 02:33:04;;;;;;;11.80;6.70;;;;;;;0.77;50.99;99559.15;1783777;80;21200;-39
2021/03/25 02:35:45;;;;;;;12.45;6.75;;;;;;;0.82;51.04;99557.73;1783301;80;21133;-39
2021/03/25 02:38:30;;;;;;;9.90;6.15;;;;;;;0.80;51.02;99556.69;1752943;80;21426;-39
2021/03/25 02:41:04;;;;;;;10.20;6.15;;;;;;;0.81;51.07;99560.15;1775880;80;21620;-39
2021/03/25 02:43:41;;;;;;;10.10;6.17;;;;;;;0.77;51.23;99559.15;1783077;80;21561;-38
2021/03/25 02:46:33;;;;;;;10.63;6.60;;;;;;;0.79;51.26;99560.97;1782203;79;21368;-38
2021/03/25 02:49:05;;;;;;;11.15;7.03;;;;;;;0.74;51.32;99563.17;1751785;80;21124;-38
2021/03/25 02:52:00;;;;;;;9.45;6.35;;;;;;;0.66;51.40;99562.50;1751853;80;21609;-39
2021/03/25 02:54:29;;;;;;;11.12;7.22;;;;;;;0.62;51.50;99563.37;1781781;80;21191;-40
2021/03/25 02:57:01;;;;;;;9.85;6.25;;;;;;;0.60;51.78;99556.18;1751501;80;21593;-40
2021/03/25 02:59:34;;;;;;;9.73;6.50;;;;;;;0.57;51.86;99560.23;1779869;80;21023;-40
2021/03/25 03:02:30;;;;;;;10.18;6.05;;;;;;;0.55;51.97;99558.92;1781473;80;21000;-40
2021/03/25 03:05:12;;;;;;;12.33;6.05;;;;;;;0.53;52.10;99557.09;1750789;80;21178;-40
2021/03/25 03:07:45;;;;;;;9.53;6.05;;;;;;;0.51;52.15;99557.91;1781622;80;21138;-40
2021/03/25 03:10:20;;;;;;;9.00;5.55;;;;;;;0.47;52.30;99555.03;1779823;80;21149;-40
2021/03/25 03:12:50;;;;;;;12.05;6.80;;;;;;;0.49;52.22;99558.19;1781677;80;22135;-40
2021/03/25 03:15:26;;;;;;;14.98;7.42;;;;;;;0.46;52.22;99567.31;1781595;80;21661;-40
2021/03/25 03:18:09;;;;;;;16.05;7.55;;;;;;;0.48;52.07;99555.84;1781574;80;21568;-40
2021/03/25 03:20:54;;;;;;;20.68;9.20;;;;;;;0.43;52.07;99560.16;1781334;80;21130;-40
2021/03/25 03:23:43;;;;;;;15.15;6.97;;;;;;;0.39;52.05;99563.12;1781488;80;20984;-39
2021/03/25 03:26:18;;;;;;;12.30;6.97;;;;;;;0.27;52.17;99558.77;1750658;80;21628;-40
2021/03/25 03:28:51;;;;;;;11.95;6.47;;;;;;;0.26;52.28;99555.05;1781351;80;21688;-40
2021/03/25 03:31:28;;;;;;;9.30;6.25;;;;;;;0.24;52.31;99561.98;1781026;80;21182;-39
2021/03/25 03:34:09;;;;;;;9.50;5.72;;;;;;;0.23;52.45;99563.09;1779811;80;21186;-40
2021/03/25 03:36:38;;;;;;;9.78;6.00;;;;;;;0.23;52.48;99565.75;1781531;80;21134;-39
2021/03/25 03:39:14;;;;;;;10.28;6.20;;;;;;;0.24;52.56;99565.22;1781629;80;21542;-39
2021/03/25 03:41:54;;;;;;;9.53;6.22;;;;;;;0.25;52.47;99562.25;1781329;80;21044;-40
2021/03/25 03:44:31;;;;;;;11.40;6.20;;;;;;;0.25;52.43;99561.45;1777818;78;21683;-40
2021/03/25 03:46:59;;;;;;;7.55;5.30;;;;;;;0.23;52.41;99567.09;1771861;79;21134;-40
2021/03/25 03:49:39;;;;;;;9.10;5.87;;;;;;;0.19;52.37;99566.61;1771845;79;21606;-39
2021/03/25 03:52:14;;;;;;;10.30;5.97;;;;;;;0.20;52.30;99572.18;1733903;82;21151;-40
2021/03/25 03:54:45;;;;;;;8.80;5.53;;;;;;;0.16;52.14;99567.97;1750938;82;21000;-40
2021/03/25 03:57:38;;;;;;;9.58;5.65;;;;;;;0.15;52.12;99567.70;1698950;82;21456;-39
2021/03/25 04:00:23;;;;;;;8.75;5.45;;;;;;;0.12;52.24;99560.83;1749028;82;21135;-39
2021/03/25 04:03:11;;;;;;;12.23;6.35;;;;;;;0.10;52.20;99562.44;1741522;82;21158;-39
2021/03/25 04:06:06;;;;;;;10.38;5.70;;;;;;;0.07;52.15;99569.68;1750981;82;21274;-40
2021/03/25 04:08:59;;;;;;;10.43;6.25;;;;;;;0.06;52.19;99566.75;1749099;82;21186;-39
2021/03/25 04:11:50;;;;;;;9.03;5.70;;;;;;;0.09;52.03;99573.41;1750394;82;21043;-39
2021/03/25 04:14:30;;;;;;;8.40;5.72;;;;;;;0.10;52.00;99566.44;1750962;82;21192;-40
2021/03/25 04:17:10;;;;;;;10.00;5.53;;;;;;;0.12;51.97;99571.48;1846056;76;23285;-39
2021/03/25 04:19:46;;;;;;;7.30;4.95;;;;;;;0.05;52.14;99571.83;1786547;79;21000;-39
2021/03/25 04:22:30;;;;;;;8.50;5.62;;;;;;;0.09;51.99;99572.87;1816683;78;21039;-38
2021/03/25 04:25:18;;;;;;;9.28;5.47;;;;;;;0.08;52.08;99571.27;1816767;79;21590;-39
2021/03/25 04:27:58;;;;;;;9.73;5.47;;;;;;;0.12;51.96;99576.82;1816748;79;20995;-39
2021/03/25 04:30:34;;;;;;;10.78;5.87;;;;;;;0.13;51.99;99571.75;1816971;79;21043;-39
2021/03/25 04:33:03;;;;;;;8.40;5.42;;;;;;;0.16;51.89;99574.63;1816730;79;20984;-39
2021/03/25 04:35:32;;;;;;;9.37;5.70;;;;;;;0.19;51.86;99576.74;1817043;79;21589;-39
2021/03/25 04:37:59;;;;;;;8.83;5.47;;;;;;;0.20;51.79;99582.30;1815907;79;21043;-39
2021/03/25 04:40:34;;;;;;;9.35;5.47;;;;;;;0.23;51.61;99575.63;1816659;79;21008;-39
2021/03/25 04:43:02;;;;;;;9.23;5.92;;;;;;;0.24;51.47;99587.88;1816677;79;21610;-39
2021/03/25 04:45:57;;;;;;;10.97;6.43;;;;;;;0.31;51.44;99587.77;1799271;79;21193;-39
2021/03/25 04:48:28;;;;;;;10.75;5.97;;;;;;;0.32;51.36;99589.37;1784612;80;22275;-39
2021/03/25 04:51:04;;;;;;;10.53;5.65;;;;;;;0.32;51.33;99584.03;1784500;79;21173;-39
2021/03/25 04:53:36;;;;;;;11.08;5.80;;;;;;;0.34;51.20;99585.86;1784605;80;21154;-39
2021/03/25 04:56:12;;;;;;;8.88;5.47;;;;;;;0.36;51.30;99583.71;1784531;80;21600;-39
2021/03/25 04:58:51;;;;;;;9.30;5.90;;;;;;;0.39;51.44;99579.66;1784609;80;21142;-39
2021/03/25 05:01:29;;;;;;;7.90;5.15;;;;;;;0.42;51.48;99578.57;1780147;80;22197;-39
2021/03/25 05:04:00;;;;;;;10.65;5.75;;;;;;;0.46;51.45;99584.12;1784438;80;20987;-39
2021/03/25 05:06:59;;;;;;;9.00;5.72;;;;;;;0.51;51.31;99592.05;1784620;80;21525;-39
2021/03/25 05:09:29;;;;;;;9.95;5.90;;;;;;;0.53;51.26;99587.77;1784492;79;21170;-39
2021/03/25 05:11:57;;;;;;;8.95;5.45;;;;;;;0.56;51.29;99587.19;1784513;80;21157;-39
2021/03/25 05:14:28;;;;;;;11.63;6.67;;;;;;;0.57;51.17;99586.11;1784477;80;21366;-39
2021/03/25 05:17:30;;;;;;;11.15;6.47;;;;;;;0.61;51.23;99589.79;1794072;78;21156;-38
2021/03/25 05:20:25;;;;;;;12.73;6.78;;;;;;;0.62;51.22;99597.52;1769630;79;21137;-39
2021/03/25 05:23:10;;;;;;;19.67;9.85;;;;;;;0.60;51.55;99594.86;1777268;79;21042;-39
2021/03/25 05:26:15;;;;;;;15.75;8.13;;;;;;;0.62;51.80;99601.52;1791608;79;21185;-39
2021/03/25 05:28:53;;;;;;;12.80;7.20;;;;;;;0.65;51.80;99608.14;1795972;79;21376;-39
2021/03/25 05:31:21;;;;;;;11.95;6.50;;;;;;;0.68;51.73;99610.22;1758173;81;21176;-39
2021/03/25 05:33:52;;;;;;;12.03;6.92;;;;;;;0.78;51.62;99610.08;1758609;81;21565;-39
2021/03/25 05:36:20;;;;;;;12.90;7.22;;;;;;;0.86;51.63;99604.91;1758565;81;21167;-39
2021/03/25 05:38:48;;;;;;;11.97;6.60;;;;;;;0.94;51.58;99610.12;1758507;81;21172;-39
2021/03/25 05:41:37;;;;;;;10.75;5.85;;;;;;;1.01;51.49;99610.56;1758531;81;21271;-39
2021/03/25 05:44:59;;;;;;;12.03;6.92;;;;;;;1.05;51.21;99602.76;1754983;81;21931;-39
2021/03/25 05:48:06;;;;;;;10.43;5.62;;;;;;;1.13;51.37;99608.22;1691357;83;21175;-38
2021/03/25 05:51:01;;;;;;;11.08;6.28;;;;;;;1.18;51.11;99610.81;1758517;81;21136;-39
2021/03/25 05:54:04;;;;;;;12.37;6.17;;;;;;;1.23;51.01;99612.07;1758517;81;21173;-39
2021/03/25 05:56:55;;;;;;;10.20;5.58;;;;;;;1.30;51.07;99619.72;1758478;81;21392;-38
2021/03/25 05:59:26;;;;;;;8.45;5.42;;;;;;;1.38;50.71;99619.05;1758211;81;21191;-39
2021/03/25 06:02:23;;;;;;;7.80;4.97;;;;;;;1.41;50.56;99607.77;1758526;81;21188;-40
2021/03/25 06:04:51;;;;;;;9.08;4.80;;;;;;;1.59;49.39;99628.86;1758451;81;21398;-40
2021/03/25 06:07:46;;;;;;;8.45;4.92;;;;;;;1.67;49.62;99630.30;1758460;81;21172;-40
2021/03/25 06:10:34;;;;;;;7.45;4.37;;;;;;;1.77;49.11;99624.53;1758458;81;21276;-39
2021/03/25 06:13:21;;;;;;;7.12;4.22;;;;;;;1.88;48.26;99624.06;1758466;81;21216;-40
2021/03/25 06:16:23;;;;;;;5.92;4.40;;;;;;;1.98;47.75;99627.89;1758358;81;21172;-40
2021/03/25 06:19:16;;;;;;;7.78;4.35;;;;;;;2.09;46.92;99619.90;1758455;81;21029;-39
2021/03/25 06:22:06;;;;;;;8.68;4.15;;;;;;;2.22;46.33;99625.56;1758520;81;21128;-39
2021/03/25 06:24:55;;;;;;;6.70;4.30;;;;;;;2.31;45.66;99624.56;1758568;81;21210;-40
2021/03/25 06:28:02;;;;;;;7.05;4.80;;;;;;;2.44;45.50;99627.77;1758324;81;21137;-39
2021/03/25 06:30:34;;;;;;;9.58;4.22;;;;;;;2.54;45.19;99629.44;1758404;81;21177;-39
2021/03/25 06:33:23;;;;;;;7.47;4.15;;;;;;;2.61;44.63;99629.84;1758187;81;21438;-39
2021/03/25 06:35:54;;;;;;;10.00;4.60;;;;;;;2.70;44.56;99629.38;1758586;81;21606;-40
2021/03/25 06:38:33;;;;;;;7.37;3.98;;;;;;;2.80;44.09;99634.52;1758372;80;21429;-39
2021/03/25 06:41:11;;;;;;;6.72;3.72;;;;;;;2.93;44.12;99639.03;1745427;81;21050;-40
2021/03/25 06:44:00;;;;;;;7.42;3.83;;;;;;;3.06;43.57;99627.48;1758522;81;20980;-39
2021/03/25 06:46:44;;;;;;;6.80;3.42;;;;;;;3.21;42.81;99635.71;1749530;81;21704;-40
2021/03/25 06:49:39;;;;;;;6.80;3.77;;;;;;;3.33;42.06;99636.52;1758543;81;21128;-40
2021/03/25 06:52:30;;;;;;;9.08;4.05;;;;;;;3.42;41.89;99634.14;1758445;81;21377;-39
2021/03/25 06:55:13;;;;;;;6.72;3.62;;;;;;;3.48;42.13;99623.55;1758484;81;21599;-40
2021/03/25 06:57:51;;;;;;;6.70;3.72;;;;;;;3.60;41.71;99628.33;1758616;81;21105;-40
2021/03/25 07:00:22;;;;;;;7.83;3.55;;;;;;;3.73;41.45;99636.05;1758496;81;21128;-39
2021/03/25 07:02:50;;;;;;;6.75;3.50;;;;;;;3.86;40.29;99626.59;1732974;81;21134;-40
2021/03/25 07:05:27;;;;;;;5.45;3.37;;;;;;;3.94;39.84;99623.16;1758528;81;21611;-40
2021/03/25 07:08:09;;;;;;;5.78;3.35;;;;;;;4.03;40.32;99621.84;1758500;81;21120;-39
2021/03/25 07:10:38;;;;;;;6.58;3.30;;;;;;;4.18;40.34;99630.03;1758460;81;21006;-39
2021/03/25 07:13:07;;;;;;;5.17;3.35;;;;;;;4.36;39.62;99623.06;1758543;81;21107;-39
2021/03/25 07:15:38;;;;;;;5.62;3.20;;;;;;;4.52;39.36;99631.48;1758507;81;21567;-39
2021/03/25 07:18:27;;;;;;;4.53;2.90;;;;;;;4.68;39.13;99623.23;1732986;81;21600;-40
2021/03/25 07:21:29;;;;;;;4.58;3.30;;;;;;;4.83;38.51;99623.88;1732458;82;21174;-39
2021/03/25 07:24:02;;;;;;;4.25;2.90;;;;;;;4.97;38.49;99625.31;1744254;82;21005;-40
2021/03/25 07:26:44;;;;;;;4.15;2.90;;;;;;;5.14;38.05;99621.82;1744304;82;21189;-39
2021/03/25 07:29:20;;;;;;;4.70;3.00;;;;;;;5.32;36.82;99624.76;1744600;82;21553;-39
2021/03/25 07:32:09;;;;;;;7.37;3.22;;;;;;;5.44;36.65;99620.85;1744438;82;21586;-39
2021/03/25 07:34:47;;;;;;;4.63;2.90;;;;;;;5.50;36.25;99620.93;1744553;82;21479;-40
2021/03/25 07:37:19;;;;;;;3.90;2.62;;;;;;;5.59;36.28;99623.05;1744267;82;21158;-40
2021/03/25 07:39:50;;;;;;;6.20;3.25;;;;;;;5.71;35.74;99617.02;1744292;82;21012;-40
2021/03/25 07:42:32;;;;;;;4.20;2.40;;;;;;;5.87;36.02;99618.64;1744463;82;21135;-40
2021/03/25 07:45:22;;;;;;;4.42;2.52;;;;;;;6.00;35.43;99617.09;1738875;81;21275;-40
2021/03/25 07:47:53;;;;;;;4.97;2.85;;;;;;;6.13;35.31;99618.00;1722327;83;21646;-39
2021/03/25 07:50:29;;;;;;;4.10;2.57;;;;;;;6.27;34.55;99610.49;1791386;79;21142;-39
2021/03/25 07:52:58;;;;;;;6.35;2.60;;;;;;;6.38;34.42;99617.09;1808222;79;21146;-39
2021/03/25 07:55:31;;;;;;;5.58;2.52;;;;;;;6.43;33.73;99613.42;1787977;79;21119;-39
2021/03/25 07:57:59;;;;;;;3.67;2.47;;;;;;;6.52;33.61;99612.27;1776651;80;21359;-40
2021/03/25 08:00:34;;;;;;;3.95;2.50;;;;;;;6.61;33.42;99620.84;1776592;80;21161;-39
2021/03/25 08:03:18;;;;;;;3.10;2.30;;;;;;;6.67;33.08;99612.80;1776755;80;21173;-40
2021/03/25 08:05:49;;;;;;;3.30;2.22;;;;;;;6.68;33.00;99616.50;1776663;80;21150;-40
2021/03/25 08:08:37;;;;;;;4.15;2.52;;;;;;;6.71;32.92;99609.69;1776983;80;21530;-40
2021/03/25 08:11:16;;;;;;;3.22;2.47;;;;;;;6.79;33.68;99600.19;1776687;80;21422;-40
2021/03/25 08:13:48;;;;;;;2.95;2.20;;;;;;;6.95;33.07;99607.13;1776546;80;21142;-39
2021/03/25 08:16:18;;;;;;;4.95;2.60;;;;;;;7.12;32.32;99602.14;1776727;80;21166;-40
2021/03/25 08:19:29;;;;;;;3.22;2.30;;;;;;;7.22;32.19;99603.88;1783960;80;21546;-40
2021/03/25 08:22:10;;;;;;;4.28;2.77;;;;;;;7.33;32.21;99592.92;1783878;80;21122;-40
2021/03/25 08:25:20;;;;;;;3.75;2.40;;;;;;;7.45;31.37;99602.98;1775759;80;21584;-40
2021/03/25 08:28:12;;;;;;;3.35;1.90;;;;;;;7.53;31.70;99591.30;1783704;80;21174;-40
2021/03/25 08:31:01;;;;;;;3.55;1.92;;;;;;;7.64;31.31;99595.72;1783903;80;21569;-40
2021/03/25 08:33:56;;;;;;;;;;;;;;;7.78;30.01;99598.89;1786437;80;21236;-40
2021/03/25 08:36:44;;;;;;;3.10;2.10;;;;;;;7.85;30.24;99589.67;1783854;80;20253;-40
2021/03/25 08:39:56;;;;;;;3.37;2.33;;;;;;;7.80;29.05;99579.09;1783952;80;21019;-40
2021/03/25 08:42:33;;;;;;;;;;;;;;;7.92;30.10;99591.27;1786526;80;21589;-40
2021/03/25 08:45:49;;;;;;;2.98;2.12;;;;;;;8.08;29.73;99588.14;1795056;79;20536;-40
2021/03/25 08:48:23;;;;;;;4.53;2.50;;;;;;;8.13;29.55;99577.67;1815908;79;21153;-40
2021/03/25 08:51:02;;;;;;;2.52;2.15;;;;;;;8.29;30.25;99582.61;1816082;79;21150;-41
2021/03/25 08:53:59;;;;;;;4.70;2.37;;;;;;;8.50;29.20;99579.81;1816029;78;21188;-40
2021/03/25 08:56:46;;;;;;;2.33;1.65;;;;;;;8.65;28.36;99573.72;1815865;79;21162;-40
2021/03/25 08:59:24;;;;;;;2.70;1.82;;;;;;;8.87;27.07;99578.61;1815820;79;21161;-40
2021/03/25 09:02:00;;;;;;;3.10;2.30;;;;;;;9.02;26.76;99569.77;1816072;78;21736;-40
2021/03/25 09:04:36;;;;;;;3.72;2.40;;;;;;;9.19;27.62;99576.03;1816110;79;21098;-41
2021/03/25 09:07:05;;;;;;;2.92;2.33;;;;;;;9.28;27.09;99576.66;1814100;79;21187;-41
2021/03/25 09:09:48;;;;;;;4.65;2.50;;;;;;;9.33;26.97;99572.36;1816151;79;21162;-40
2021/03/25 09:12:24;;;;;;;2.75;2.27;;;;;;;9.41;27.04;99570.05;1808271;79;21466;-40
2021/03/25 09:14:51;;;;;;;3.00;2.37;;;;;;;9.47;27.11;99575.45;1816055;79;21074;-41
2021/03/25 09:17:23;;;;;;;4.45;2.45;;;;;;;9.62;27.20;99571.98;1783577;80;21197;-40
2021/03/25 09:19:57;;;;;;;4.05;2.10;;;;;;;9.85;26.89;99572.16;1787339;79;22270;-41
2021/03/25 09:22:39;;;;;;;3.80;2.50;;;;;;;10.00;25.79;99570.03;1790959;79;21008;-41
2021/03/25 09:25:27;;;;;;;3.60;2.35;;;;;;;10.01;26.45;99571.05;1814788;79;21114;-40
2021/03/25 09:28:09;;;;;;;3.70;2.47;;;;;;;10.02;26.68;99568.53;1813074;79;21712;-41
2021/03/25 09:30:48;;;;;;;4.25;2.30;;;;;;;10.20;26.82;99559.52;1815731;79;21568;-41
2021/03/25 09:33:42;;;;;;;4.20;2.25;;;;;;;10.53;26.52;99560.45;1814917;78;21232;-41
2021/03/25 09:36:33;;;;;;;4.92;2.20;;;;;;;10.84;25.38;99563.05;1744684;82;21138;-41
2021/03/25 09:39:09;;;;;;;4.28;2.30;;;;;;;10.94;25.61;99571.79;1762601;81;21197;-40
2021/03/25 09:41:39;;;;;;;3.42;2.20;;;;;;;11.12;25.12;99564.79;1762592;81;22171;-41
2021/03/25 09:44:17;;;;;;;2.95;2.10;;;;;;;11.21;25.72;99563.99;1762834;81;21131;-41
2021/03/25 09:46:54;;;;;;;3.58;1.95;;;;;;;11.21;25.00;99554.50;1767585;81;20995;-41
2021/03/25 09:49:33;;;;;;;4.70;2.08;;;;;;;11.20;25.59;99563.77;1764830;81;21655;-41
2021/03/25 09:52:22;;;;;;;4.15;2.00;;;;;;;11.37;25.82;99568.77;1767047;81;21711;-41
2021/03/25 09:55:08;;;;;;;3.90;2.17;;;;;;;11.70;24.46;99573.06;1809043;78;22818;-40
2021/03/25 09:57:42;;;;;;;3.20;1.75;;;;;;;11.76;24.12;99564.84;1786001;80;21052;-40
2021/03/25 10:00:28;;;;;;;3.10;1.70;;;;;;;11.73;23.78;99562.86;1786954;80;21332;-40
2021/03/25 10:03:08;;;;;;;2.98;1.95;;;;;;;11.75;23.92;99558.43;1786954;80;21000;-40
2021/03/25 10:05:41;;;;;;;3.50;1.98;;;;;;;11.89;24.28;99552.45;1787223;80;21067;-40
2021/03/25 10:08:19;;;;;;;3.42;1.98;;;;;;;12.06;24.00;99556.80;1785119;80;21006;-40
2021/03/25 10:10:58;;;;;;;3.50;2.10;;;;;;;12.22;24.13;99554.52;1783653;80;20988;-40
2021/03/25 10:13:43;;;;;;;2.17;1.85;;;;;;;12.22;24.19;99552.59;1783727;80;21815;-40
2021/03/25 10:16:38;;;;;;;2.92;1.80;;;;;;;12.25;24.52;99548.37;1783669;80;21629;-40
2021/03/25 10:19:11;;;;;;;3.50;1.72;;;;;;;12.44;23.57;99557.17;1783727;80;21055;-40
2021/03/25 10:21:59;;;;;;;3.98;1.40;;;;;;;12.64;23.28;99544.24;1783791;80;21135;-40
2021/03/25 10:24:41;;;;;;;2.65;1.50;;;;;;;12.69;21.56;99544.50;1783666;80;22021;-40
2021/03/25 10:27:30;;;;;;;3.95;1.82;;;;;;;12.58;22.30;99553.33;1783775;80;22276;-40
2021/03/25 10:30:24;;;;;;;2.80;1.55;;;;;;;12.67;22.80;99550.90;1783703;80;21099;-40
2021/03/25 10:32:53;;;;;;;2.77;1.70;;;;;;;12.73;21.61;99554.88;1783700;80;21333;-41
2021/03/25 10:35:30;;;;;;;2.62;1.62;;;;;;;12.72;22.45;99554.66;1783558;80;21154;-41
2021/03/25 10:38:05;;;;;;;2.27;1.70;;;;;;;12.85;22.43;99544.53;1760382;80;21156;-41
2021/03/25 10:40:40;;;;;;;2.42;1.50;;;;;;;13.12;22.84;99552.06;1782223;80;21573;-41
2021/03/25 10:43:17;;;;;;;2.47;1.52;;;;;;;13.44;22.05;99545.63;1781823;80;21052;-41
2021/03/25 10:45:54;;;;;;;2.87;1.60;;;;;;;13.70;21.18;99547.45;1791934;79;21740;-41
2021/03/25 10:48:33;;;;;;;2.05;1.60;;;;;;;13.79;20.94;99552.78;1796968;79;21126;-41
2021/03/25 10:51:19;;;;;;;2.12;1.60;;;;;;;13.68;20.67;99537.48;1797057;79;21526;-41
2021/03/25 10:53:53;;;;;;;3.33;1.45;;;;;;;13.68;20.88;99547.02;1793275;79;21534;-41
2021/03/25 10:56:37;;;;;;;1.70;1.20;;;;;;;13.61;20.16;99540.13;1785984;80;21135;-41
2021/03/25 10:59:16;;;;;;;3.08;1.60;;;;;;;13.39;19.68;99534.50;1786161;80;21157;-41
2021/03/25 11:01:58;;;;;;;1.92;1.40;;;;;;;13.14;20.62;99530.72;1738344;82;21159;-41
2021/03/25 11:04:34;;;;;;;2.12;1.50;;;;;;;12.88;21.44;99533.47;1760333;81;21174;-41
2021/03/25 11:07:14;;;;;;;3.67;1.90;;;;;;;12.77;21.95;99524.42;1737683;82;21060;-41
2021/03/25 11:09:55;;;;;;;1.90;1.40;;;;;;;12.81;22.08;99529.32;1744873;81;21925;-41
2021/03/25 11:12:28;;;;;;;2.25;1.50;;;;;;;12.84;21.81;99524.48;1768078;81;21032;-41
2021/03/25 11:15:22;;;;;;;2.90;1.57;;;;;;;12.85;21.26;99524.70;1737734;82;21182;-41
2021/03/25 11:17:50;;;;;;;1.30;1.20;;;;;;;12.79;20.96;99526.17;1737755;82;21444;-41
2021/03/25 11:20:24;;;;;;;3.33;1.52;;;;;;;12.68;21.40;99536.16;1737710;82;21542;-41
2021/03/25 11:22:52;;;;;;;2.50;1.60;;;;;;;12.67;20.93;99524.48;1764669;81;21548;-41
2021/03/25 11:25:28;;;;;;;2.42;1.70;;;;;;;12.59;21.47;99514.08;1716272;82;21123;-41
2021/03/25 11:28:05;;;;;;;2.12;1.50;;;;;;;12.50;21.62;99523.66;1743413;82;21068;-41
2021/03/25 11:30:41;;;;;;;3.00;1.77;;;;;;;12.29;21.69;99520.09;1743603;82;21194;-41
2021/03/25 11:33:32;;;;;;;2.37;1.70;;;;;;;12.29;22.33;99520.09;1743442;82;21430;-41
2021/03/25 11:36:03;;;;;;;2.33;1.80;;;;;;;12.36;21.71;99519.38;1743647;82;21642;-41
2021/03/25 11:38:38;;;;;;;4.12;1.80;;;;;;;12.27;21.69;99516.94;1743711;82;21186;-41
2021/03/25 11:41:11;;;;;;;2.42;1.92;;;;;;;12.12;21.82;99509.72;1743583;82;21140;-41
2021/03/25 11:43:51;;;;;;;2.77;1.98;;;;;;;11.97;22.05;99505.22;1718641;82;21174;-41
2021/03/25 11:46:34;;;;;;;3.00;1.63;;;;;;;11.94;22.47;99516.25;1729248;81;21370;-41
2021/03/25 11:49:22;;;;;;;2.33;1.70;;;;;;;11.98;22.33;99514.94;1727273;83;21649;-41
2021/03/25 11:52:02;;;;;;;3.00;1.95;;;;;;;12.09;22.21;99503.67;1722475;81;21144;-41
2021/03/25 11:54:34;;;;;;;3.27;1.98;;;;;;;12.30;21.98;99504.53;1737928;82;21398;-41
2021/03/25 11:57:26;;;;;;;2.65;1.60;;;;;;;12.50;22.55;99504.05;1748275;82;21649;-41
2021/03/25 12:00:13;;;;;;;3.10;2.15;;;;;;;12.55;22.36;99495.57;1782973;80;21403;-41
2021/03/25 12:02:44;;;;;;;3.58;1.92;;;;;;;12.51;22.09;99497.47;1783026;80;21128;-41
2021/03/25 12:05:38;;;;;;;2.85;1.80;;;;;;;12.61;22.57;99496.04;1783063;80;21036;-41
2021/03/25 12:08:15;;;;;;;4.15;1.85;;;;;;;12.75;22.54;99498.14;1783098;80;21378;-41
2021/03/25 12:10:45;;;;;;;2.83;1.95;;;;;;;12.81;22.05;99492.02;1748009;82;21194;-41
2021/03/25 12:13:13;;;;;;;3.08;1.90;;;;;;;12.81;21.77;99489.87;1748260;82;21211;-41
2021/03/25 12:15:43;;;;;;;3.02;1.85;;;;;;;12.81;21.93;99492.59;1782926;80;21210;-41
2021/03/25 12:18:28;;;;;;;3.45;2.00;;;;;;;12.81;21.25;99491.23;1748226;82;21566;-41
2021/03/25 12:21:02;;;;;;;4.08;2.22;;;;;;;12.62;21.74;99489.45;1748439;81;21178;-41
2021/03/25 12:23:33;;;;;;;2.55;1.98;;;;;;;12.48;22.03;99491.41;1741413;81;21610;-41
2021/03/25 12:26:05;;;;;;;3.15;1.95;;;;;;;12.65;22.32;99490.06;1728963;82;21358;-41
2021/03/25 12:28:34;;;;;;;3.40;2.08;;;;;;;13.01;22.37;99484.47;1782533;80;21194;-41
2021/03/25 12:31:02;;;;;;;5.58;2.20;;;;;;;13.42;21.85;99482.56;1782518;80;21158;-41
2021/03/25 12:33:37;;;;;;;3.33;1.97;;;;;;;13.64;21.28;99463.91;1782510;80;21202;-41
2021/03/25 12:36:07;;;;;;;3.15;2.00;;;;;;;13.68;21.29;99470.73;1782416;80;21178;-41
2021/03/25 12:38:35;;;;;;;;;;;;;;;13.62;21.14;99472.23;1785381;80;21608;-41
2021/03/25 12:41:10;;;;;;;3.87;1.90;;;;;;;13.72;21.66;99474.27;1782270;80;20210;-41
2021/03/25 12:43:39;;;;;;;2.25;1.75;;;;;;;14.00;21.79;99470.39;1782357;80;21210;-41